Red Springs, North Carolina
Current Conditions -  °F | °C
As of 6:52 AM on Thursday 18 Dec 2014 (Local Time) from KMEB Reporting Station
Clear Clear  
Wind Chill:   Ceiling: Unl
Heat Index:   Visibility: 10mi
Dew Point:   Wind: 0mph
Humidity: 89%   Direction: NA
Pressure: 30.16"   Gusts: NA
Location:  34.82°N, 79.18°W
Report Text: KMEB 181152Z AUTO 00000KT 10SM CLR 02/00 A3016 RMK AO2 SLP213 T00170000 10028 20006 53016
Loading
Personal Weather Stations






























Interactive Weather Map New forecast layout! Learn more

10-Day Weather Forecast

Advertisements
Track Severe Weather on mobile